Time;durP1;ratioP1;P1;durP2;ratioP2;P2;SDS_P1;SDS_P2;PMS_P1;PMS_P2;Temp;Humidity;BMP_temperature;BMP_pressure;BME280_temperature;BME280_humidity;BME280_pressure;Samples;Min_cycle;Max_cycle;Signal;HPM_P1;HPM_P2
2023/04/21 00:00:29;;;;;;;3.30;1.60;;;12.80;83.70;;;;;;5065932;28;20595;-73
2023/04/21 00:02:58;;;;;;;5.60;2.20;;;12.80;83.70;;;;;;5085584;28;20193;-72
2023/04/21 00:05:27;;;;;;;2.83;1.63;;;12.80;83.80;;;;;;5064853;28;20575;-73
2023/04/21 00:07:57;;;;;;;2.67;1.60;;;12.80;83.70;;;;;;5066934;28;20302;-74
2023/04/21 00:10:24;;;;;;;5.57;2.27;;;12.80;83.70;;;;;;5065364;28;20732;-74
2023/04/21 00:12:52;;;;;;;2.23;1.70;;;12.70;83.90;;;;;;5085593;28;20193;-74
2023/04/21 00:15:19;;;;;;;2.20;1.70;;;12.70;83.90;;;;;;5088874;28;20206;-74
2023/04/21 00:17:47;;;;;;;1.57;1.47;;;12.70;84.00;;;;;;5091805;28;20193;-74
2023/04/21 00:20:14;;;;;;;3.57;1.90;;;12.70;84.20;;;;;;5079316;28;20216;-74
2023/04/21 00:22:43;;;;;;;1.40;1.27;;;12.70;84.20;;;;;;5063646;28;20204;-74
2023/04/21 00:25:11;;;;;;;2.23;1.40;;;12.70;84.20;;;;;;5065929;28;20205;-74
2023/04/21 00:27:39;;;;;;;2.50;2.13;;;12.60;84.20;;;;;;5060065;28;20214;-73
2023/04/21 00:30:09;;;;;;;2.80;1.83;;;12.70;84.50;;;;;;5079778;28;20198;-73
2023/04/21 00:32:37;;;;;;;2.00;1.73;;;12.60;84.30;;;;;;5066573;28;20193;-73
2023/04/21 00:35:05;;;;;;;2.37;1.70;;;12.60;84.40;;;;;;5070549;28;20726;-72
2023/04/21 00:37:33;;;;;;;2.53;1.60;;;12.60;84.60;;;;;;5073136;28;20292;-73
2023/04/21 00:40:00;;;;;;;1.50;1.40;;;12.60;84.60;;;;;;5062330;28;20201;-73
2023/04/21 00:42:28;;;;;;;1.23;1.13;;;12.50;84.60;;;;;;5067027;28;20201;-72
2023/04/21 00:44:55;;;;;;;1.63;1.20;;;12.50;84.80;;;;;;5087036;28;20236;-73
2023/04/21 00:47:25;;;;;;;1.10;1.10;;;12.50;84.90;;;;;;5070016;28;20208;-73
2023/04/21 00:49:52;;;;;;;1.90;1.13;;;12.50;85.00;;;;;;5071404;28;20201;-74
2023/04/21 00:52:19;;;;;;;2.10;1.33;;;12.50;85.20;;;;;;5086099;28;20735;-73
2023/04/21 00:54:48;;;;;;;1.03;1.03;;;12.50;85.30;;;;;;5069265;28;20575;-74
2023/04/21 00:57:16;;;;;;;1.27;1.03;;;12.50;85.40;;;;;;5071385;28;20201;-73
2023/04/21 00:59:44;;;;;;;2.23;1.37;;;12.60;85.80;;;;;;5065888;28;20211;-72
2023/04/21 01:02:11;;;;;;;2.30;1.27;;;12.60;85.60;;;;;;5062863;28;20209;-72
2023/04/21 01:04:39;;;;;;;1.10;1.10;;;12.60;85.60;;;;;;5083222;28;20599;-73
2023/04/21 01:07:08;;;;;;;1.83;1.50;;;12.60;85.50;;;;;;5071384;28;20224;-72
2023/04/21 01:09:36;;;;;;;3.03;1.30;;;12.50;85.50;;;;;;5068000;28;20256;-73
2023/04/21 01:12:07;;;;;;;1.50;1.20;;;12.50;85.60;;;;;;5068868;28;20361;-72
2023/04/21 01:14:34;;;;;;;1.30;1.20;;;12.50;85.60;;;;;;5064560;28;20674;-72
2023/04/21 01:17:04;;;;;;;1.73;1.63;;;12.50;85.60;;;;;;5071228;28;20205;-73
2023/04/21 01:19:35;;;;;;;1.50;1.40;;;12.50;85.50;;;;;;5068499;28;20659;-73
2023/04/21 01:22:03;;;;;;;1.17;1.17;;;12.50;85.50;;;;;;5082811;28;20234;-73
2023/04/21 01:24:38;;;;;;;1.17;1.10;;;12.50;85.40;;;;;;5071189;28;20193;-73
2023/04/21 01:27:10;;;;;;;1.63;1.53;;;12.50;85.30;;;;;;5085434;28;20221;-73
2023/04/21 01:29:38;;;;;;;1.50;1.30;;;12.50;85.30;;;;;;5071754;28;20250;-73
2023/04/21 01:32:07;;;;;;;1.67;1.50;;;12.50;85.30;;;;;;5068989;28;20219;-73
2023/04/21 01:34:35;;;;;;;1.40;1.30;;;12.50;85.30;;;;;;5089441;28;20200;-72
2023/04/21 01:37:07;;;;;;;2.57;1.53;;;12.50;85.20;;;;;;5093855;28;20288;-73
2023/04/21 01:39:34;;;;;;;1.37;1.27;;;12.50;85.10;;;;;;5075701;28;20233;-73
2023/04/21 01:42:01;;;;;;;1.70;1.60;;;12.40;85.10;;;;;;5082916;28;20739;-72
2023/04/21 01:44:28;;;;;;;2.03;1.50;;;12.40;85.10;;;;;;5080065;28;20247;-72
2023/04/21 01:46:57;;;;;;;2.63;1.50;;;12.50;85.10;;;;;;5081000;28;20236;-73
2023/04/21 01:49:24;;;;;;;1.87;1.40;;;12.50;85.00;;;;;;5082899;28;20198;-72
2023/04/21 01:51:51;;;;;;;4.50;2.20;;;12.40;84.80;;;;;;5071177;28;20287;-72
2023/04/21 01:54:21;;;;;;;4.43;2.00;;;12.40;84.90;;;;;;5064796;28;20542;-73
2023/04/21 01:56:48;;;;;;;2.10;1.50;;;12.40;84.90;;;;;;5085874;28;20623;-72
2023/04/21 01:59:15;;;;;;;2.73;1.70;;;12.50;84.90;;;;;;5071083;28;20651;-72
2023/04/21 02:01:43;;;;;;;3.30;2.13;;;12.50;84.80;;;;;;5062998;28;20207;-72
2023/04/21 02:04:10;;;;;;;3.37;2.00;;;12.50;84.70;;;;;;5088202;28;20203;-72
2023/04/21 02:06:37;;;;;;;4.63;2.33;;;12.50;84.60;;;;;;5070643;28;20229;-72
2023/04/21 02:09:06;;;;;;;3.83;2.20;;;12.50;84.50;;;;;;5062673;28;20250;-72
2023/04/21 02:11:35;;;;;;;3.63;1.70;;;12.50;84.50;;;;;;5060300;28;20202;-73
2023/04/21 02:14:02;;;;;;;3.23;2.30;;;12.50;84.60;;;;;;5089074;28;20198;-73
2023/04/21 02:16:29;;;;;;;3.73;2.30;;;12.50;84.80;;;;;;5059629;28;20213;-73
2023/04/21 02:18:58;;;;;;;3.30;1.90;;;12.50;84.80;;;;;;5075148;28;20277;-72
2023/04/21 02:21:28;;;;;;;2.53;1.30;;;12.50;84.80;;;;;;5064109;28;20573;-73
2023/04/21 02:23:55;;;;;;;7.70;2.40;;;12.50;84.90;;;;;;5057982;28;20684;-73
2023/04/21 02:26:22;;;;;;;2.17;1.80;;;12.50;85.00;;;;;;5071309;28;20672;-72
2023/04/21 02:28:50;;;;;;;2.00;1.80;;;12.50;85.00;;;;;;5063656;28;20316;-73
2023/04/21 02:31:18;;;;;;;1.47;1.30;;;12.50;85.70;;;;;;5088295;28;20184;-72
2023/04/21 02:33:45;;;;;;;2.00;1.60;;;12.40;84.90;;;;;;5088776;28;20202;-72
2023/04/21 02:36:13;;;;;;;3.10;1.50;;;12.40;85.10;;;;;;5071460;28;20208;-72
2023/04/21 02:38:40;;;;;;;1.93;1.60;;;12.40;85.20;;;;;;5063632;28;20194;-72
2023/04/21 02:41:12;;;;;;;2.00;1.80;;;12.40;85.20;;;;;;5059001;28;20220;-72
2023/04/21 02:43:40;;;;;;;6.10;2.20;;;12.40;85.30;;;;;;5063435;28;20203;-72
2023/04/21 02:46:09;;;;;;;3.00;1.90;;;12.40;85.50;;;;;;5070687;28;20204;-72
2023/04/21 02:48:36;;;;;;;2.07;1.80;;;12.30;85.60;;;;;;5065723;28;20772;-73
2023/04/21 02:51:04;;;;;;;4.80;2.00;;;12.20;85.90;;;;;;5085082;28;20218;-74
2023/04/21 02:53:31;;;;;;;2.00;1.90;;;12.20;86.20;;;;;;5066110;28;20220;-74
2023/04/21 02:56:01;;;;;;;2.90;1.80;;;12.20;86.30;;;;;;5068492;28;20254;-74
2023/04/21 02:58:30;;;;;;;2.43;2.23;;;12.20;86.50;;;;;;5068381;28;20207;-74
2023/04/21 03:00:58;;;;;;;3.63;2.03;;;12.20;86.70;;;;;;5072124;28;20293;-74
2023/04/21 03:03:26;;;;;;;2.97;1.57;;;12.30;87.00;;;;;;5079674;28;20193;-74
2023/04/21 03:05:57;;;;;;;1.83;1.70;;;12.30;86.90;;;;;;5075699;28;20200;-73
2023/04/21 03:08:24;;;;;;;1.70;1.60;;;12.30;86.90;;;;;;5073064;28;20212;-73
2023/04/21 03:10:51;;;;;;;2.20;1.80;;;12.30;87.10;;;;;;5068882;28;20660;-73
2023/04/21 03:13:18;;;;;;;5.20;1.70;;;12.20;87.20;;;;;;5060174;28;20384;-73
2023/04/21 03:15:46;;;;;;;1.57;1.33;;;12.10;87.40;;;;;;5070164;28;20193;-74
2023/04/21 03:18:13;;;;;;;1.87;1.60;;;12.00;87.60;;;;;;5078965;28;20212;-73
2023/04/21 03:20:42;;;;;;;1.87;1.70;;;12.00;88.00;;;;;;5068599;28;20283;-73
2023/04/21 03:23:10;;;;;;;3.63;1.60;;;11.90;88.20;;;;;;5081377;28;20305;-73
2023/04/21 03:25:38;;;;;;;1.90;1.73;;;11.90;88.50;;;;;;5073052;28;20201;-73
2023/04/21 03:28:06;;;;;;;3.07;1.97;;;11.90;88.60;;;;;;5091014;28;20227;-73
2023/04/21 03:30:33;;;;;;;2.37;2.17;;;12.00;88.80;;;;;;5087108;28;20233;-73
2023/04/21 03:33:00;;;;;;;2.80;2.27;;;12.00;88.80;;;;;;5102026;28;20204;-73
2023/04/21 03:35:27;;;;;;;5.13;2.07;;;12.10;88.90;;;;;;5072020;28;20205;-73
2023/04/21 03:37:56;;;;;;;2.17;2.07;;;12.10;88.90;;;;;;5067042;28;20618;-72
2023/04/21 03:40:23;;;;;;;2.20;1.63;;;12.10;89.00;;;;;;5071945;28;20572;-73
2023/04/21 03:42:50;;;;;;;1.87;1.70;;;12.10;89.00;;;;;;5061967;28;20232;-73
2023/04/21 03:45:21;;;;;;;1.87;1.77;;;12.10;89.00;;;;;;5066921;28;20204;-72
2023/04/21 03:47:48;;;;;;;5.00;2.17;;;12.10;89.00;;;;;;5081769;28;20368;-73
2023/04/21 03:50:16;;;;;;;2.60;1.77;;;12.10;89.00;;;;;;5077931;28;20199;-73
2023/04/21 03:52:43;;;;;;;1.73;1.63;;;12.20;89.10;;;;;;5068805;28;20205;-72
2023/04/21 03:55:11;;;;;;;3.77;2.10;;;12.20;89.10;;;;;;5088272;28;20188;-72
2023/04/21 03:57:40;;;;;;;3.43;1.80;;;12.20;89.10;;;;;;5087089;28;20192;-72
2023/04/21 04:00:09;;;;;;;3.23;1.80;;;12.20;89.00;;;;;;5094342;28;20227;-72
2023/04/21 04:02:39;;;;;;;2.53;2.10;;;12.10;88.90;;;;;;5075985;28;20206;-72
2023/04/21 04:05:07;;;;;;;2.30;2.10;;;12.10;88.90;;;;;;5068824;28;20192;-73
2023/04/21 04:07:35;;;;;;;6.37;2.30;;;12.10;89.00;;;;;;5089412;28;20255;-73
2023/04/21 04:10:02;;;;;;;3.17;2.10;;;12.10;88.90;;;;;;5085220;28;20199;-73
2023/04/21 04:12:30;;;;;;;1.63;1.53;;;12.10;88.80;;;;;;5062657;28;20193;-72
2023/04/21 04:14:57;;;;;;;2.13;1.80;;;12.10;88.90;;;;;;5085650;28;20261;-73
2023/04/21 04:17:25;;;;;;;1.67;1.57;;;12.10;88.90;;;;;;5066568;28;20197;-73
2023/04/21 04:19:52;;;;;;;2.43;2.10;;;12.10;89.00;;;;;;5080817;28;20605;-72
2023/04/21 04:22:19;;;;;;;5.33;2.70;;;12.10;89.00;;;;;;5070386;28;20220;-73
2023/04/21 04:24:46;;;;;;;3.40;2.30;;;12.10;89.00;;;;;;5087471;28;20193;-73
2023/04/21 04:27:13;;;;;;;3.13;2.20;;;12.20;88.90;;;;;;5080169;28;20226;-73
2023/04/21 04:29:42;;;;;;;1.90;1.80;;;12.20;88.90;;;;;;5073794;28;20210;-72
2023/04/21 04:32:10;;;;;;;5.70;2.10;;;12.20;88.90;;;;;;5074857;28;20360;-71
2023/04/21 04:34:37;;;;;;;2.10;1.90;;;12.20;88.90;;;;;;5069562;28;20215;-71
2023/04/21 04:37:05;;;;;;;2.00;1.67;;;12.20;89.00;;;;;;5071894;28;20208;-71
2023/04/21 04:39:32;;;;;;;2.10;1.90;;;12.10;88.80;;;;;;5086814;28;20264;-71
2023/04/21 04:42:00;;;;;;;1.70;1.60;;;12.10;88.90;;;;;;5060049;28;20232;-73
2023/04/21 04:44:27;;;;;;;4.43;1.97;;;12.10;88.90;;;;;;5072453;28;20201;-72
2023/04/21 04:46:56;;;;;;;3.17;1.60;;;12.20;89.10;;;;;;5067691;28;20224;-72
2023/04/21 04:49:23;;;;;;;3.70;2.20;;;12.20;89.00;;;;;;5087842;28;20216;-73
2023/04/21 04:51:50;;;;;;;1.90;1.80;;;12.20;89.10;;;;;;5090085;28;20606;-72
2023/04/21 04:54:17;;;;;;;4.13;1.80;;;12.20;89.10;;;;;;5081855;28;20195;-72
2023/04/21 04:56:44;;;;;;;4.27;2.27;;;12.10;89.00;;;;;;5089042;28;20200;-72
2023/04/21 04:59:12;;;;;;;5.17;2.33;;;12.20;89.10;;;;;;5083595;28;20185;-72
2023/04/21 05:01:40;;;;;;;8.20;2.43;;;12.20;89.10;;;;;;5083352;28;20652;-72
2023/04/21 05:04:09;;;;;;;3.53;2.80;;;12.30;89.20;;;;;;5083065;28;20262;-72
2023/04/21 05:06:36;;;;;;;3.23;2.40;;;12.30;89.20;;;;;;5085099;28;20331;-72
2023/04/21 05:09:04;;;;;;;2.97;2.50;;;12.30;89.00;;;;;;5082512;28;20265;-72
2023/04/21 05:11:31;;;;;;;3.60;2.70;;;12.30;89.10;;;;;;5089694;28;20198;-72
2023/04/21 05:13:58;;;;;;;2.53;2.33;;;12.30;89.10;;;;;;5091314;28;20199;-72
2023/04/21 05:16:25;;;;;;;7.33;3.00;;;12.30;89.20;;;;;;5085188;28;20224;-73
2023/04/21 05:18:53;;;;;;;3.43;2.73;;;12.30;89.20;;;;;;5088732;28;20197;-72
2023/04/21 05:21:27;;;;;;;3.57;2.30;;;12.30;89.20;;;;;;5078402;28;20690;-72
2023/04/21 05:23:54;;;;;;;2.67;2.47;;;12.30;89.20;;;;;;5082122;28;20270;-73
2023/04/21 05:26:21;;;;;;;2.33;2.03;;;12.40;89.40;;;;;;5088553;28;20199;-73
2023/04/21 05:28:48;;;;;;;4.97;2.30;;;12.40;89.40;;;;;;5084940;28;20283;-73
2023/04/21 05:31:15;;;;;;;3.20;2.13;;;12.40;89.30;;;;;;5057684;28;20270;-73
2023/04/21 05:33:42;;;;;;;4.20;2.93;;;12.40;89.40;;;;;;5062224;28;20602;-73
2023/04/21 05:36:11;;;;;;;8.67;3.30;;;12.40;89.50;;;;;;5087943;28;20300;-72
2023/04/21 05:38:39;;;;;;;3.10;2.70;;;12.50;89.80;;;;;;5064842;28;20741;-73
2023/04/21 05:41:06;;;;;;;4.30;2.13;;;12.50;89.80;;;;;;5078395;28;20199;-72
2023/04/21 05:43:34;;;;;;;9.57;2.73;;;12.50;89.80;;;;;;5083470;28;20677;-73
2023/04/21 05:46:01;;;;;;;1.90;1.80;;;12.50;89.90;;;;;;5082185;28;20207;-73
2023/04/21 05:48:30;;;;;;;4.97;2.47;;;12.50;89.90;;;;;;5061238;28;20225;-73
2023/04/21 05:50:57;;;;;;;4.70;2.83;;;12.50;90.00;;;;;;5097624;28;20208;-72
2023/04/21 05:53:24;;;;;;;12.23;3.70;;;12.50;90.00;;;;;;5068914;28;20283;-73
2023/04/21 05:55:53;;;;;;;8.73;3.90;;;12.50;90.10;;;;;;5092575;28;20252;-73
2023/04/21 05:58:20;;;;;;;13.80;4.50;;;12.60;90.20;;;;;;5072127;28;20326;-72
2023/04/21 06:00:49;;;;;;;10.47;4.30;;;12.60;90.20;;;;;;5070108;28;20557;-72
2023/04/21 06:03:16;;;;;;;6.80;3.80;;;12.60;90.20;;;;;;5074282;28;20247;-72
2023/04/21 06:05:43;;;;;;;6.03;3.07;;;12.70;90.30;;;;;;5070864;28;20314;-73
2023/04/21 06:08:10;;;;;;;6.60;3.30;;;12.70;90.30;;;;;;5084402;28;20221;-73
2023/04/21 06:10:37;;;;;;;5.63;3.23;;;12.70;90.40;;;;;;5080125;28;20201;-72
2023/04/21 06:13:05;;;;;;;6.07;2.80;;;12.80;90.40;;;;;;5074815;28;20193;-72
2023/04/21 06:15:32;;;;;;;4.50;2.27;;;12.80;90.30;;;;;;5085992;28;20258;-73
2023/04/21 06:18:00;;;;;;;3.73;2.43;;;12.80;90.30;;;;;;5071556;28;20208;-70
2023/04/21 06:20:27;;;;;;;5.43;2.47;;;12.90;90.30;;;;;;5089630;28;20635;-70
2023/04/21 06:22:54;;;;;;;2.27;2.07;;;13.00;90.30;;;;;;5069337;28;20246;-71
2023/04/21 06:25:21;;;;;;;4.47;2.67;;;13.00;90.20;;;;;;5075168;28;20546;-71
2023/04/21 06:27:48;;;;;;;7.37;2.90;;;13.00;90.10;;;;;;5092268;28;20198;-71
2023/04/21 06:30:17;;;;;;;3.77;2.53;;;13.10;90.00;;;;;;5060532;28;20240;-72
2023/04/21 06:32:46;;;;;;;5.80;2.87;;;13.10;89.80;;;;;;5085991;28;20274;-72
2023/04/21 06:35:14;;;;;;;7.47;2.97;;;13.20;89.70;;;;;;5085905;28;20610;-73
2023/04/21 06:37:41;;;;;;;10.00;3.50;;;13.20;89.50;;;;;;5087791;28;20602;-73
2023/04/21 06:40:11;;;;;;;11.90;3.60;;;13.30;88.90;;;;;;5080615;28;20284;-72
2023/04/21 06:42:40;;;;;;;11.20;2.80;;;13.30;89.10;;;;;;5078186;28;20250;-72
2023/04/21 06:45:09;;;;;;;9.40;2.87;;;13.40;88.50;;;;;;5083640;28;20193;-72
2023/04/21 06:47:38;;;;;;;2.63;2.20;;;13.40;88.60;;;;;;5071687;28;20199;-72
2023/04/21 06:50:06;;;;;;;4.03;2.70;;;13.40;88.50;;;;;;5071835;28;20221;-72
2023/04/21 06:52:33;;;;;;;8.43;2.77;;;13.50;88.60;;;;;;5075329;28;20695;-71
2023/04/21 06:55:00;;;;;;;5.67;3.07;;;13.50;88.50;;;;;;5089487;28;20198;-72
2023/04/21 06:57:27;;;;;;;9.63;2.50;;;13.60;88.60;;;;;;5074248;28;20842;-72
2023/04/21 06:59:54;;;;;;;5.60;2.30;;;13.60;88.30;;;;;;5088268;28;20185;-72
2023/04/21 07:02:24;;;;;;;2.47;1.80;;;13.70;88.30;;;;;;5088289;28;20193;-72
2023/04/21 07:04:53;;;;;;;3.50;1.93;;;13.70;88.20;;;;;;5082014;28;20771;-72
2023/04/21 07:07:20;;;;;;;2.07;1.90;;;13.70;87.90;;;;;;5099922;28;20228;-72
2023/04/21 07:09:47;;;;;;;4.70;2.27;;;13.70;87.70;;;;;;5077967;28;20580;-71
2023/04/21 07:12:14;;;;;;;7.50;1.90;;;13.80;87.70;;;;;;5086813;28;20564;-72
2023/04/21 07:14:42;;;;;;;4.50;1.87;;;13.80;87.60;;;;;;5080928;28;20209;-71
2023/04/21 07:17:09;;;;;;;4.27;2.20;;;13.90;87.50;;;;;;5071670;28;20638;-72
2023/04/21 07:19:36;;;;;;;3.43;1.70;;;14.00;87.20;;;;;;5082786;28;20190;-72
2023/04/21 07:22:05;;;;;;;2.93;1.63;;;14.10;87.20;;;;;;5088200;28;20201;-72
2023/04/21 07:24:34;;;;;;;2.23;1.57;;;14.20;87.00;;;;;;5083037;28;20194;-72
2023/04/21 07:27:02;;;;;;;2.30;1.63;;;14.20;86.90;;;;;;5085899;28;20832;-73
2023/04/21 07:29:29;;;;;;;7.53;2.60;;;14.30;86.80;;;;;;5084787;28;20201;-72
2023/04/21 07:31:57;;;;;;;2.53;2.20;;;14.40;86.70;;;;;;5079678;28;20191;-72
2023/04/21 07:34:24;;;;;;;4.03;2.20;;;14.50;86.70;;;;;;5088574;28;20669;-72
2023/04/21 07:36:52;;;;;;;8.63;2.40;;;14.50;86.30;;;;;;5089674;28;20209;-72
2023/04/21 07:39:20;;;;;;;3.07;1.70;;;14.60;86.30;;;;;;5094633;28;20224;-73
2023/04/21 07:41:48;;;;;;;5.60;2.03;;;14.70;86.20;;;;;;5091592;28;20276;-72
2023/04/21 07:44:15;;;;;;;3.97;1.67;;;14.80;86.20;;;;;;5071578;28;20348;-73
2023/04/21 07:46:44;;;;;;;2.53;1.90;;;14.90;86.20;;;;;;5080151;28;20295;-73
2023/04/21 07:49:11;;;;;;;7.80;2.10;;;15.00;85.90;;;;;;5085719;28;20211;-73
2023/04/21 07:51:39;;;;;;;3.90;1.60;;;15.00;85.70;;;;;;5073363;28;20195;-72
2023/04/21 07:54:06;;;;;;;8.30;2.60;;;15.10;85.70;;;;;;5072423;28;20211;-72
2023/04/21 07:56:34;;;;;;;3.87;1.50;;;15.20;85.50;;;;;;5085875;28;20311;-72
2023/04/21 07:59:01;;;;;;;4.00;2.10;;;15.30;85.40;;;;;;5072118;28;20205;-72
2023/04/21 08:01:28;;;;;;;4.27;1.80;;;15.40;85.30;;;;;;5090512;28;20599;-72
2023/04/21 08:03:55;;;;;;;5.53;1.70;;;15.40;85.10;;;;;;5071105;28;20207;-72
2023/04/21 08:06:22;;;;;;;5.83;2.00;;;15.50;84.60;;;;;;5062502;28;20228;-72
2023/04/21 08:08:50;;;;;;;4.50;2.30;;;15.50;84.50;;;;;;5077347;28;20272;-72
2023/04/21 08:11:17;;;;;;;6.00;2.03;;;15.60;83.70;;;;;;5067927;28;20204;-72
2023/04/21 08:13:45;;;;;;;4.00;1.83;;;15.60;83.40;;;;;;5084938;28;20216;-72
2023/04/21 08:16:13;;;;;;;2.80;1.37;;;15.70;83.30;;;;;;5085032;28;21022;-72
2023/04/21 08:18:40;;;;;;;2.40;1.40;;;15.80;83.30;;;;;;5062596;28;20198;-72
2023/04/21 08:21:07;;;;;;;4.30;1.60;;;15.80;83.20;;;;;;5063128;28;20196;-73
2023/04/21 08:23:34;;;;;;;8.23;2.53;;;15.90;82.80;;;;;;5073755;28;20255;-72
2023/04/21 08:26:02;;;;;;;5.87;2.33;;;16.00;82.50;;;;;;5085281;28;20200;-72
2023/04/21 08:28:29;;;;;;;8.63;1.93;;;16.10;82.20;;;;;;5088593;28;20727;-72
2023/04/21 08:30:59;;;;;;;3.43;1.90;;;16.10;82.20;;;;;;5076349;28;20299;-72
2023/04/21 08:33:26;;;;;;;5.83;1.70;;;16.20;82.10;;;;;;5081907;28;20189;-72
2023/04/21 08:35:53;;;;;;;10.53;2.70;;;16.30;81.80;;;;;;5075776;28;20200;-72
2023/04/21 08:38:20;;;;;;;1.93;1.63;;;16.30;81.10;;;;;;5092432;28;20232;-73
2023/04/21 08:40:48;;;;;;;2.77;1.47;;;16.40;81.40;;;;;;5082436;28;20188;-72
2023/04/21 08:43:15;;;;;;;4.77;2.10;;;16.50;81.40;;;;;;5086271;28;20192;-72
2023/04/21 08:45:44;;;;;;;4.80;1.70;;;16.60;81.10;;;;;;5083666;28;20189;-72
2023/04/21 08:48:20;;;;;;;9.53;1.83;;;16.60;80.70;;;;;;5086134;28;20905;-72
2023/04/21 08:50:49;;;;;;;6.93;1.70;;;16.70;80.30;;;;;;5066200;28;20238;-72
2023/04/21 08:53:17;;;;;;;1.73;1.50;;;16.80;80.30;;;;;;5087171;28;20589;-72
2023/04/21 08:55:46;;;;;;;1.33;1.33;;;16.90;80.70;;;;;;5081796;28;20640;-76
2023/04/21 08:58:13;;;;;;;1.63;1.30;;;17.00;81.80;;;;;;5090069;28;20205;-74
2023/04/21 09:00:41;;;;;;;13.03;1.80;;;17.10;82.70;;;;;;5064462;28;22368;-74
2023/04/21 09:03:09;;;;;;;2.70;1.60;;;17.20;81.60;;;;;;5087946;28;20283;-74
2023/04/21 09:05:37;;;;;;;4.40;1.40;;;17.30;81.50;;;;;;5084953;28;20191;-70
2023/04/21 09:08:09;;;;;;;6.00;1.87;;;17.40;81.40;;;;;;5084421;28;20723;-72
2023/04/21 09:10:45;;;;;;;7.60;1.30;;;17.40;81.30;;;;;;5084199;28;20217;-70
2023/04/21 09:13:12;;;;;;;2.28;1.13;;;17.60;81.30;;;;;;5090477;28;20422;-69
2023/04/21 09:15:40;;;;;;;3.17;1.43;;;17.70;81.20;;;;;;5067638;28;20226;-67
2023/04/21 09:18:12;;;;;;;1.10;1.10;;;17.80;80.90;;;;;;5082007;28;20978;-67
2023/04/21 09:20:42;;;;;;;3.53;1.13;;;17.90;81.50;;;;;;5077219;28;20560;-70
2023/04/21 09:23:10;;;;;;;8.70;1.90;;;18.00;80.10;;;;;;5074489;28;20316;-70
2023/04/21 09:25:40;;;;;;;3.53;1.60;;;18.10;79.90;;;;;;5088336;28;20203;-69
2023/04/21 09:28:08;;;;;;;3.57;1.20;;;18.20;79.10;;;;;;5087273;28;20937;-69
2023/04/21 09:30:36;;;;;;;7.00;1.80;;;18.20;78.70;;;;;;5088046;28;20237;-69
2023/04/21 09:33:06;;;;;;;4.70;1.92;;;18.30;78.40;;;;;;5089501;28;20571;-70
2023/04/21 09:35:35;;;;;;;5.43;1.80;;;18.40;77.80;;;;;;5089719;28;20205;-69
2023/04/21 09:38:04;;;;;;;4.05;2.00;;;18.40;76.50;;;;;;5057774;28;20292;-69
2023/04/21 09:40:33;;;;;;;3.63;1.50;;;18.50;76.10;;;;;;5080123;28;20191;-69
2023/04/21 09:43:00;;;;;;;3.25;1.25;;;18.50;75.80;;;;;;5090723;28;20199;-68
2023/04/21 09:45:28;;;;;;;4.97;1.27;;;18.60;75.80;;;;;;5082389;28;20226;-69
2023/04/21 09:47:59;;;;;;;9.18;1.80;;;18.70;75.70;;;;;;5078043;28;20195;-69
2023/04/21 09:50:27;;;;;;;8.00;2.88;;;18.70;75.10;;;;;;5097297;28;20286;-69
2023/04/21 09:52:55;;;;;;;4.90;1.80;;;18.70;73.90;;;;;;5094257;28;20198;-69
2023/04/21 09:55:28;;;;;;;7.00;1.50;;;18.70;73.30;;;;;;5097086;28;20241;-69
2023/04/21 09:57:59;;;;;;;1.40;1.30;;;18.80;72.70;;;;;;5075956;28;20191;-68
2023/04/21 10:00:28;;;;;;;4.18;1.40;;;18.90;73.60;;;;;;5078376;28;20196;-71
2023/04/21 10:02:57;;;;;;;4.93;1.40;;;18.90;73.10;;;;;;5084886;28;20213;-68
2023/04/21 10:05:25;;;;;;;2.65;1.70;;;19.00;72.50;;;;;;5099275;28;20195;-69
2023/04/21 10:07:52;;;;;;;5.55;1.80;;;19.10;72.10;;;;;;5082686;28;20220;-71
2023/04/21 10:10:26;;;;;;;5.68;1.67;;;19.10;71.50;;;;;;5091147;28;20208;-68
2023/04/21 10:12:53;;;;;;;3.73;1.60;;;19.20;71.20;;;;;;5069896;28;20202;-71
2023/04/21 10:15:32;;;;;;;4.78;1.70;;;19.20;70.50;;;;;;5090035;28;20205;-71
2023/04/21 10:18:13;;;;;;;4.30;1.73;;;19.20;69.10;;;;;;5090925;28;20214;-71
2023/04/21 10:20:54;;;;;;;2.60;1.80;;;19.10;67.30;;;;;;5087287;28;20219;-71
2023/04/21 10:23:38;;;;;;;3.83;1.60;;;19.10;66.80;;;;;;5056898;28;20307;-67
2023/04/21 10:26:10;;;;;;;5.05;1.67;;;19.10;67.00;;;;;;5065531;28;20200;-68
2023/04/21 10:28:41;;;;;;;3.70;2.00;;;19.10;67.40;;;;;;5085432;28;20224;-68
2023/04/21 10:31:29;;;;;;;3.60;1.30;;;19.20;67.50;;;;;;5073246;28;20312;-70
2023/04/21 10:34:15;;;;;;;4.30;1.77;;;19.30;67.40;;;;;;5076753;28;20197;-72
2023/04/21 10:36:58;;;;;;;3.78;1.48;;;19.30;65.60;;;;;;5089120;28;20201;-73
2023/04/21 10:39:27;;;;;;;10.55;2.25;;;19.40;65.90;;;;;;5058848;28;20211;-73
2023/04/21 10:41:58;;;;;;;9.02;2.47;;;19.30;64.10;;;;;;5085584;28;20221;-73
2023/04/21 10:44:25;;;;;;;5.40;1.70;;;19.30;63.70;;;;;;5069158;28;20212;-73
2023/04/21 10:46:53;;;;;;;7.95;2.05;;;19.20;63.30;;;;;;5070718;28;20212;-72
2023/04/21 10:49:24;;;;;;;8.15;1.92;;;19.30;63.90;;;;;;5086930;28;20197;-72
2023/04/21 10:52:06;;;;;;;2.35;1.30;;;19.40;64.30;;;;;;5087088;28;20192;-72
2023/04/21 10:54:41;;;;;;;1.42;1.27;;;19.40;64.40;;;;;;5095655;28;20214;-73
2023/04/21 10:57:11;;;;;;;7.18;1.70;;;19.60;64.30;;;;;;5072588;28;20274;-73
2023/04/21 10:59:38;;;;;;;5.57;2.15;;;19.60;63.60;;;;;;5089677;28;20200;-72
2023/04/21 11:02:06;;;;;;;8.68;2.10;;;19.60;62.60;;;;;;5089577;28;20287;-72
2023/04/21 11:04:33;;;;;;;2.63;1.63;;;19.70;63.10;;;;;;5085051;28;20279;-72
2023/04/21 11:07:07;;;;;;;6.72;1.40;;;19.80;63.40;;;;;;5057187;28;20259;-72
2023/04/21 11:09:35;;;;;;;3.33;1.30;;;19.80;63.50;;;;;;5083601;28;20288;-73
2023/04/21 11:12:06;;;;;;;3.17;1.70;;;19.90;63.50;;;;;;5081347;28;20272;-73
2023/04/21 11:14:36;;;;;;;4.90;1.60;;;20.00;63.60;;;;;;5076308;28;20701;-73
2023/04/21 11:17:03;;;;;;;5.72;1.90;;;20.10;63.30;;;;;;5089051;28;20205;-72
2023/04/21 11:19:32;;;;;;;4.72;1.55;;;20.10;62.90;;;;;;5066553;28;20193;-72
2023/04/21 11:21:59;;;;;;;6.68;1.50;;;20.20;63.20;;;;;;5093219;28;20184;-73
2023/04/21 11:24:26;;;;;;;2.03;1.40;;;20.20;63.20;;;;;;5089275;28;20196;-73
2023/04/21 11:26:53;;;;;;;2.22;1.40;;;20.20;63.20;;;;;;5062765;28;20259;-73
2023/04/21 11:29:21;;;;;;;5.90;1.75;;;20.30;63.00;;;;;;5098180;28;20271;-73
2023/04/21 11:31:49;;;;;;;4.25;1.55;;;20.30;62.70;;;;;;5081534;28;20436;-73
2023/04/21 11:34:20;;;;;;;9.13;1.98;;;20.30;63.00;;;;;;5077647;28;20280;-73
2023/04/21 11:36:48;;;;;;;8.13;2.30;;;20.30;62.60;;;;;;5086890;28;20185;-73
2023/04/21 11:39:18;;;;;;;5.15;1.80;;;20.30;61.70;;;;;;5085210;28;20719;-72
2023/04/21 11:41:47;;;;;;;5.55;1.52;;;20.30;61.90;;;;;;5083045;28;20232;-72
2023/04/21 11:44:30;;;;;;;4.40;1.48;;;20.30;61.90;;;;;;5072282;28;20192;-72
2023/04/21 11:46:59;;;;;;;11.30;2.63;;;20.30;61.80;;;;;;5080454;28;20255;-72
2023/04/21 11:49:29;;;;;;;4.78;1.70;;;20.20;61.40;;;;;;5084770;28;20244;-72
2023/04/21 11:51:57;;;;;;;9.73;1.85;;;20.20;61.70;;;;;;5074987;28;20208;-74
2023/04/21 11:54:24;;;;;;;8.05;2.17;;;20.10;61.90;;;;;;5084642;28;20245;-65
2023/04/21 11:56:51;;;;;;;5.28;1.75;;;20.10;62.60;;;;;;5083181;28;20190;-67
2023/04/21 11:59:23;;;;;;;5.47;2.08;;;20.10;62.50;;;;;;5093158;28;20192;-66
2023/04/21 12:01:52;;;;;;;6.13;2.22;;;20.10;62.30;;;;;;5059542;28;20291;-66
2023/04/21 12:04:22;;;;;;;10.52;2.53;;;20.10;62.50;;;;;;5084512;28;20192;-66
2023/04/21 12:06:57;;;;;;;6.05;2.45;;;20.00;62.70;;;;;;5069133;28;20233;-66
2023/04/21 12:09:24;;;;;;;2.40;2.03;;;20.00;62.90;;;;;;5059532;28;20254;-66
2023/04/21 12:11:52;;;;;;;2.50;1.65;;;19.90;63.30;;;;;;5073340;28;20227;-66
2023/04/21 12:14:21;;;;;;;1.48;1.40;;;19.90;63.60;;;;;;5064420;28;20217;-66
2023/04/21 12:16:50;;;;;;;1.63;1.40;;;19.90;63.90;;;;;;5063937;28;20295;-66
2023/04/21 12:19:25;;;;;;;1.35;1.25;;;20.00;64.10;;;;;;5061286;28;20197;-66
2023/04/21 12:21:56;;;;;;;1.77;1.55;;;20.00;64.00;;;;;;5083251;28;20253;-66
2023/04/21 12:24:23;;;;;;;2.75;1.40;;;20.10;64.00;;;;;;5063513;28;20652;-66
2023/04/21 12:26:50;;;;;;;1.33;1.10;;;20.10;63.90;;;;;;5066452;28;20560;-66
2023/04/21 12:29:17;;;;;;;1.23;1.10;;;20.10;64.00;;;;;;5065251;28;20248;-66
2023/04/21 12:31:44;;;;;;;1.10;1.10;;;20.10;63.70;;;;;;5063530;28;20249;-66
2023/04/21 12:34:12;;;;;;;1.20;1.20;;;20.00;63.40;;;;;;5059813;28;20197;-66
2023/04/21 12:36:40;;;;;;;1.48;1.00;;;20.10;63.40;;;;;;5063239;28;20220;-66
2023/04/21 12:39:08;;;;;;;3.40;1.90;;;20.10;63.40;;;;;;5070734;28;20434;-66
2023/04/21 12:41:36;;;;;;;3.88;2.10;;;20.00;62.20;;;;;;5071230;28;20193;-66
2023/04/21 12:44:03;;;;;;;6.32;2.25;;;19.80;62.00;;;;;;5062692;28;20638;-66
2023/04/21 12:46:30;;;;;;;5.70;2.10;;;19.80;62.60;;;;;;5066172;28;20202;-66
2023/04/21 12:48:57;;;;;;;2.90;1.83;;;19.70;63.40;;;;;;5068104;28;20220;-66
2023/04/21 12:51:24;;;;;;;2.67;1.50;;;19.60;64.10;;;;;;5066122;28;20250;-66